createdAt,value
2023-05-09T00:01:17.013Z,14.49
2023-05-09T00:03:18.598Z,14.47
2023-05-09T00:05:21.712Z,14.44
2023-05-09T00:07:23.244Z,14.38
2023-05-09T00:09:25.480Z,14.35
2023-05-09T00:11:27.169Z,14.30
2023-05-09T00:13:28.813Z,14.23
2023-05-09T00:15:30.558Z,14.21
2023-05-09T00:17:32.170Z,14.18
2023-05-09T00:19:33.994Z,14.15
2023-05-09T00:21:35.777Z,14.11
2023-05-09T00:23:38.068Z,14.08
2023-05-09T00:25:39.587Z,14.03
2023-05-09T00:27:41.154Z,14.00
2023-05-09T00:29:43.192Z,13.96
2023-05-09T00:31:44.769Z,13.92
2023-05-09T00:33:46.494Z,13.89
2023-05-09T00:35:48.013Z,13.85
2023-05-09T00:37:49.526Z,13.82
2023-05-09T00:39:51.086Z,13.74
2023-05-09T00:41:52.892Z,13.73
2023-05-09T00:43:54.437Z,13.70
2023-05-09T00:45:56.276Z,13.68
2023-05-09T00:47:58.011Z,13.64
2023-05-09T00:49:59.785Z,13.61
2023-05-09T00:52:02.681Z,13.58
2023-05-09T00:54:04.929Z,13.55
2023-05-09T00:56:09.234Z,13.50
2023-05-09T00:58:11.398Z,13.50
2023-05-09T01:00:13.642Z,13.47
2023-05-09T01:02:18.855Z,13.45
2023-05-09T01:04:20.407Z,13.43
2023-05-09T01:06:39.895Z,13.43
2023-05-09T01:09:03.417Z,13.35
2023-05-09T01:11:18.319Z,13.33
2023-05-09T01:13:40.818Z,13.31
2023-05-09T01:15:59.033Z,13.27
2023-05-09T01:18:21.805Z,13.25
2023-05-09T01:20:34.614Z,13.21
2023-05-09T01:22:37.847Z,13.21
2023-05-09T01:24:42.287Z,13.22
2023-05-09T01:26:52.014Z,13.19
2023-05-09T01:29:18.072Z,13.15
2023-05-09T01:31:20.284Z,13.12
2023-05-09T01:33:26.404Z,13.11
2023-05-09T01:35:31.447Z,13.11
2023-05-09T01:37:39.689Z,13.08
2023-05-09T01:39:45.145Z,13.06
2023-05-09T01:41:46.824Z,13.04
2023-05-09T01:43:50.584Z,13.01
2023-05-09T01:45:53.280Z,13.00
2023-05-09T01:47:57.402Z,12.98
2023-05-09T01:50:02.594Z,12.99
2023-05-09T01:52:08.181Z,12.97
2023-05-09T01:54:11.786Z,12.98
2023-05-09T01:56:13.838Z,12.98
2023-05-09T01:58:18.186Z,12.96
2023-05-09T02:00:20.319Z,12.95
2023-05-09T02:02:22.277Z,12.93
2023-05-09T02:04:24.865Z,12.92
2023-05-09T02:06:29.696Z,12.94
2023-05-09T02:08:32.783Z,12.93
2023-05-09T02:10:35.850Z,12.93
2023-05-09T02:12:37.982Z,12.90
2023-05-09T02:14:39.516Z,12.93
2023-05-09T02:16:42.084Z,12.93
2023-05-09T02:18:43.699Z,12.91
2023-05-09T02:20:45.447Z,12.91
2023-05-09T02:22:47.762Z,12.92
2023-05-09T02:24:49.679Z,12.96
2023-05-09T02:26:51.317Z,12.95
2023-05-09T02:28:54.355Z,12.94
2023-05-09T02:30:58.769Z,12.93
2023-05-09T02:33:04.508Z,12.93
2023-05-09T02:35:09.422Z,12.94
2023-05-09T02:37:11.464Z,12.94
2023-05-09T02:39:13.105Z,12.90
2023-05-09T02:41:15.572Z,12.90
2023-05-09T02:43:17.108Z,12.90
2023-05-09T02:45:18.703Z,12.89
2023-05-09T02:47:20.781Z,12.89
2023-05-09T02:49:31.517Z,12.86
2023-05-09T02:51:33.759Z,12.87
2023-05-09T02:53:35.408Z,12.86
2023-05-09T02:55:36.991Z,12.84
2023-05-09T02:57:38.602Z,12.86
2023-05-09T02:59:40.107Z,12.86
2023-05-09T03:01:41.689Z,12.84
2023-05-09T03:03:43.223Z,12.81
2023-05-09T03:05:44.784Z,12.80
2023-05-09T03:07:46.316Z,12.81
2023-05-09T03:09:47.836Z,12.79
2023-05-09T03:11:50.310Z,12.80
2023-05-09T03:13:51.819Z,12.80
2023-05-09T03:15:53.380Z,12.78
2023-05-09T03:17:54.985Z,12.80
2023-05-09T03:19:56.575Z,12.79
2023-05-09T03:21:58.123Z,12.78
2023-05-09T03:23:59.800Z,12.76
2023-05-09T03:26:01.347Z,12.74
2023-05-09T03:28:02.872Z,12.75
2023-05-09T03:30:04.810Z,12.74
2023-05-09T03:32:06.600Z,12.76
2023-05-09T03:34:13.003Z,12.78
2023-05-09T03:36:14.607Z,12.78
2023-05-09T03:38:16.264Z,12.79
2023-05-09T03:40:17.851Z,12.87
2023-05-09T03:42:19.460Z,12.86
2023-05-09T03:44:21.013Z,12.89
2023-05-09T03:46:22.548Z,12.92
2023-05-09T03:48:24.100Z,12.96
2023-05-09T03:50:25.700Z,12.99
2023-05-09T03:52:27.254Z,13.01
2023-05-09T03:54:28.867Z,13.05
2023-05-09T03:56:30.397Z,13.08
2023-05-09T03:58:31.978Z,13.11
2023-05-09T04:00:33.536Z,13.15
2023-05-09T04:02:35.574Z,13.17
2023-05-09T04:04:37.216Z,13.23
2023-05-09T04:06:38.805Z,13.24
2023-05-09T04:08:40.373Z,13.27
2023-05-09T04:10:41.887Z,13.30
2023-05-09T04:12:43.438Z,13.35
2023-05-09T04:14:48.132Z,13.37
2023-05-09T04:16:50.554Z,13.39
2023-05-09T04:18:52.051Z,13.45
2023-05-09T04:20:53.716Z,13.51
2023-05-09T04:22:55.242Z,13.55
2023-05-09T04:24:57.324Z,13.57
2023-05-09T04:26:58.882Z,13.60
2023-05-09T04:29:00.413Z,13.64
2023-05-09T04:31:02.067Z,13.67
2023-05-09T04:33:03.710Z,13.73
2023-05-09T04:35:06.520Z,13.77
2023-05-09T04:37:08.059Z,13.82
2023-05-09T04:39:10.730Z,13.86
2023-05-09T04:41:12.328Z,13.89
2023-05-09T04:43:13.825Z,13.92
2023-05-09T04:45:15.728Z,13.96
2023-05-09T04:47:17.600Z,14.00
2023-05-09T04:49:19.103Z,14.02
2023-05-09T04:51:20.857Z,14.05
2023-05-09T04:53:22.448Z,14.09
2023-05-09T04:55:23.951Z,14.11
2023-05-09T04:57:25.883Z,14.16
2023-05-09T04:59:27.412Z,14.20
2023-05-09T05:01:29.061Z,14.24
2023-05-09T05:03:30.636Z,14.28
2023-05-09T05:05:35.115Z,14.34
2023-05-09T05:07:39.121Z,14.36
2023-05-09T05:09:40.957Z,14.41
2023-05-09T05:11:53.200Z,14.45
2023-05-09T05:14:00.627Z,14.49
2023-05-09T05:16:02.227Z,14.52
2023-05-09T05:18:03.980Z,14.54
2023-05-09T05:20:06.715Z,14.57
2023-05-09T05:22:08.273Z,14.60
2023-05-09T05:24:09.874Z,14.64
2023-05-09T05:26:11.431Z,14.67
2023-05-09T05:28:13.008Z,14.70
2023-05-09T05:30:15.682Z,14.72
2023-05-09T05:32:17.563Z,14.74
2023-05-09T05:34:19.175Z,14.78
2023-05-09T05:36:20.789Z,14.80
2023-05-09T05:38:22.305Z,14.81
2023-05-09T05:40:23.802Z,14.85
2023-05-09T05:42:25.441Z,14.89
2023-05-09T05:44:26.988Z,14.95
2023-05-09T05:46:28.479Z,14.97
2023-05-09T05:48:30.033Z,15.00
2023-05-09T05:50:31.562Z,15.04
2023-05-09T05:52:33.126Z,15.09
2023-05-09T05:54:34.622Z,15.14
2023-05-09T05:56:36.188Z,15.16
2023-05-09T05:58:37.784Z,15.18
2023-05-09T06:00:39.923Z,15.21
2023-05-09T06:02:45.469Z,15.26
2023-05-09T06:04:49.004Z,15.30
2023-05-09T06:06:52.517Z,15.31
2023-05-09T06:08:56.480Z,15.33
2023-05-09T06:10:58.093Z,15.35
2023-05-09T06:12:59.617Z,15.35
2023-05-09T06:15:01.221Z,15.38
2023-05-09T06:17:03.033Z,15.41
2023-05-09T06:19:04.712Z,15.38
2023-05-09T06:21:07.265Z,15.45
2023-05-09T06:23:08.876Z,15.48
2023-05-09T06:25:10.751Z,15.52
2023-05-09T06:27:12.491Z,15.55
2023-05-09T06:29:15.418Z,15.60
2023-05-09T06:31:19.625Z,15.63
2023-05-09T06:33:23.077Z,15.66
2023-05-09T06:35:24.644Z,15.72
2023-05-09T06:37:26.390Z,15.77
2023-05-09T06:39:27.869Z,15.81
2023-05-09T06:41:29.548Z,15.83
2023-05-09T06:43:31.062Z,15.84
2023-05-09T06:45:32.666Z,15.88
2023-05-09T06:47:34.373Z,15.95
2023-05-09T06:49:36.024Z,15.99
2023-05-09T06:51:37.578Z,15.98
2023-05-09T06:53:39.122Z,16.03
2023-05-09T06:55:40.870Z,15.97
2023-05-09T06:57:42.404Z,16.01
2023-05-09T06:59:44.879Z,16.13
2023-05-09T07:01:46.461Z,16.14
2023-05-09T07:03:48.415Z,16.23
2023-05-09T07:05:50.001Z,16.27
2023-05-09T07:07:51.752Z,16.44
2023-05-09T07:10:00.721Z,16.55
2023-05-09T07:12:09.280Z,16.72
2023-05-09T07:14:10.783Z,16.80
2023-05-09T07:16:12.381Z,17.02
2023-05-09T07:18:16.657Z,17.10
2023-05-09T07:20:18.380Z,17.28
2023-05-09T07:22:20.090Z,17.28
2023-05-09T07:24:21.665Z,17.30
2023-05-09T07:26:23.241Z,17.31
2023-05-09T07:28:25.366Z,17.33
2023-05-09T07:30:27.152Z,17.40
2023-05-09T07:32:28.891Z,17.33
2023-05-09T07:34:30.494Z,17.43
2023-05-09T07:36:34.822Z,17.59
2023-05-09T07:38:37.091Z,17.77
2023-05-09T07:40:38.851Z,17.81
2023-05-09T07:42:40.668Z,17.91
2023-05-09T07:44:42.181Z,18.09
2023-05-09T07:46:43.911Z,17.99
2023-05-09T07:48:45.544Z,18.07
2023-05-09T07:50:47.045Z,18.25
2023-05-09T07:52:49.278Z,17.98
2023-05-09T07:54:50.963Z,18.23
2023-05-09T07:56:52.845Z,18.27
2023-05-09T07:58:55.708Z,18.20
2023-05-09T08:00:57.649Z,17.98
2023-05-09T08:02:59.670Z,18.01
2023-05-09T08:05:01.779Z,18.02
2023-05-09T08:07:04.311Z,17.95
2023-05-09T08:09:05.888Z,18.04
2023-05-09T08:11:07.748Z,18.05
2023-05-09T08:13:09.547Z,18.09
2023-05-09T08:15:11.615Z,18.08
2023-05-09T08:17:13.216Z,18.23
2023-05-09T08:19:15.155Z,18.10
2023-05-09T08:21:16.647Z,18.08
2023-05-09T08:23:18.642Z,18.13
2023-05-09T08:25:20.899Z,18.12
2023-05-09T08:27:22.534Z,18.22
2023-05-09T08:29:24.161Z,18.26
2023-05-09T08:31:27.084Z,18.20
2023-05-09T08:33:28.715Z,18.11
2023-05-09T08:35:30.339Z,18.07
2023-05-09T08:37:32.003Z,18.08
2023-05-09T08:39:35.030Z,18.10
2023-05-09T08:41:37.321Z,18.02
2023-05-09T08:43:40.897Z,17.98
2023-05-09T08:45:58.011Z,18.03
2023-05-09T08:48:00.282Z,17.99
2023-05-09T08:50:05.569Z,17.86
2023-05-09T08:52:07.655Z,18.02
2023-05-09T08:54:10.479Z,18.06
2023-05-09T08:56:12.029Z,18.08
2023-05-09T08:58:14.728Z,18.17
2023-05-09T09:00:20.238Z,18.03
2023-05-09T09:02:22.423Z,18.23
2023-05-09T09:04:24.020Z,18.24
2023-05-09T09:06:26.157Z,18.36
2023-05-09T09:08:28.013Z,18.40
2023-05-09T09:10:32.272Z,18.43
2023-05-09T09:12:35.178Z,18.35
2023-05-09T09:14:39.881Z,18.56
2023-05-09T09:16:44.503Z,18.64
2023-05-09T09:18:46.642Z,19.07
2023-05-09T09:20:51.203Z,19.19
2023-05-09T09:22:57.704Z,19.46
2023-05-09T09:25:02.600Z,19.55
2023-05-09T09:27:11.805Z,19.58
2023-05-09T09:29:13.833Z,19.68
2023-05-09T09:31:27.662Z,19.61
2023-05-09T09:33:29.808Z,19.75
2023-05-09T09:35:39.226Z,19.69
2023-05-09T09:37:42.795Z,19.74
2023-05-09T09:39:55.124Z,19.85
2023-05-09T09:41:56.693Z,19.98
2023-05-09T09:43:58.849Z,20.21
2023-05-09T09:46:04.894Z,20.40
2023-05-09T09:48:07.557Z,20.47
2023-05-09T09:50:12.123Z,20.50
2023-05-09T09:52:23.250Z,20.56
2023-05-09T09:54:28.685Z,20.45
2023-05-09T09:56:44.950Z,20.62
2023-05-09T09:58:46.850Z,20.66
2023-05-09T10:01:04.592Z,20.81
2023-05-09T10:03:06.327Z,20.80
2023-05-09T10:05:08.394Z,20.92
2023-05-09T10:07:14.341Z,20.93
2023-05-09T10:09:17.266Z,21.20
2023-05-09T10:11:18.793Z,21.38
2023-05-09T10:13:21.365Z,21.18
2023-05-09T10:15:23.875Z,20.94
2023-05-09T10:17:27.356Z,20.73
2023-05-09T10:19:30.199Z,20.60
2023-05-09T10:21:33.101Z,20.51
2023-05-09T10:23:37.823Z,20.34
2023-05-09T10:25:44.476Z,20.44
2023-05-09T10:27:47.627Z,20.24
2023-05-09T10:30:02.565Z,20.29
2023-05-09T10:32:20.574Z,20.59
2023-05-09T10:34:24.376Z,20.80
2023-05-09T10:36:26.556Z,20.86
2023-05-09T10:38:28.812Z,21.00
2023-05-09T10:40:32.080Z,21.05
2023-05-09T10:42:33.628Z,21.12
2023-05-09T10:44:35.496Z,20.97
2023-05-09T10:46:37.459Z,21.14
2023-05-09T10:48:40.647Z,20.98
2023-05-09T10:50:43.566Z,21.02
2023-05-09T10:53:11.557Z,21.06
2023-05-09T10:55:13.424Z,21.20
2023-05-09T10:57:20.416Z,21.05
2023-05-09T10:59:41.803Z,21.21
2023-05-09T11:01:43.379Z,21.35
2023-05-09T11:03:54.785Z,21.50
2023-05-09T11:05:58.914Z,21.53
2023-05-09T11:08:29.715Z,21.64
2023-05-09T11:10:42.497Z,21.90
2023-05-09T11:12:57.369Z,21.87
2023-05-09T11:15:07.787Z,21.83
2023-05-09T11:17:28.257Z,21.90
2023-05-09T11:20:00.994Z,21.69
2023-05-09T11:22:13.107Z,21.79
2023-05-09T11:24:18.797Z,22.15
2023-05-09T11:26:22.436Z,22.18
2023-05-09T11:28:31.587Z,22.14
2023-05-09T11:30:41.769Z,22.42
2023-05-09T11:32:46.126Z,22.38
2023-05-09T11:34:48.233Z,22.08
2023-05-09T11:36:49.743Z,22.01
2023-05-09T11:39:08.778Z,21.86
2023-05-09T11:41:10.506Z,21.62
2023-05-09T11:43:12.975Z,21.56
2023-05-09T11:45:15.380Z,21.41
2023-05-09T11:47:17.176Z,21.17
2023-05-09T11:49:19.585Z,21.18
2023-05-09T11:51:21.308Z,21.41
2023-05-09T11:53:23.032Z,22.05
2023-05-09T11:55:30.342Z,22.32
2023-05-09T11:57:32.355Z,22.37
2023-05-09T11:59:38.382Z,22.33
2023-05-09T12:01:40.799Z,22.57
2023-05-09T12:03:46.025Z,23.00
2023-05-09T12:05:48.880Z,22.79
2023-05-09T12:07:50.843Z,23.34
2023-05-09T12:09:52.702Z,23.51
2023-05-09T12:11:54.271Z,23.28
2023-05-09T12:13:55.811Z,23.77
2023-05-09T12:16:01.867Z,23.75
2023-05-09T12:18:08.923Z,23.75
2023-05-09T12:20:11.323Z,23.41
2023-05-09T12:22:12.872Z,22.99
2023-05-09T12:24:19.875Z,22.71
2023-05-09T12:26:22.786Z,22.47
2023-05-09T12:28:25.765Z,22.42
2023-05-09T12:30:27.501Z,22.11
2023-05-09T12:32:32.831Z,22.04
2023-05-09T12:34:34.574Z,21.93
2023-05-09T12:36:37.168Z,22.07
2023-05-09T12:38:39.030Z,21.89
2023-05-09T12:40:40.576Z,21.86
2023-05-09T12:42:46.281Z,21.78
2023-05-09T12:44:53.691Z,21.83
2023-05-09T12:46:57.579Z,21.79
2023-05-09T12:48:59.443Z,21.74
2023-05-09T12:51:07.516Z,21.93
2023-05-09T12:53:09.073Z,22.32
2023-05-09T12:55:13.524Z,22.68
2023-05-09T12:57:29.400Z,22.77
2023-05-09T12:59:33.366Z,22.84
2023-05-09T13:01:35.910Z,22.58
2023-05-09T13:03:40.596Z,22.47
2023-05-09T13:05:42.106Z,22.19
2023-05-09T13:07:46.295Z,22.06
2023-05-09T13:09:57.029Z,21.93
2023-05-09T13:11:58.666Z,21.72
2023-05-09T13:14:00.386Z,21.55
2023-05-09T13:16:04.303Z,21.30
2023-05-09T13:18:05.937Z,21.09
2023-05-09T13:20:08.624Z,20.81
2023-05-09T13:22:12.931Z,20.57
2023-05-09T13:24:14.485Z,20.30
2023-05-09T13:26:16.031Z,19.93
2023-05-09T13:28:17.595Z,19.84
2023-05-09T13:30:19.566Z,19.80
2023-05-09T13:32:21.539Z,19.57
2023-05-09T13:34:23.130Z,19.47
2023-05-09T13:36:24.709Z,19.56
2023-05-09T13:38:30.694Z,19.59
2023-05-09T13:40:32.258Z,19.53
2023-05-09T13:42:34.788Z,19.65
2023-05-09T13:44:36.378Z,19.53
2023-05-09T13:46:37.946Z,19.53
2023-05-09T13:48:39.730Z,19.57
2023-05-09T13:50:41.552Z,19.51
2023-05-09T13:52:43.063Z,19.63
2023-05-09T13:54:45.111Z,19.57
2023-05-09T13:56:46.731Z,19.59
2023-05-09T13:58:48.382Z,19.66
2023-05-09T14:00:50.502Z,19.83
2023-05-09T14:02:52.874Z,19.85
2023-05-09T14:04:54.657Z,19.74
2023-05-09T14:06:56.586Z,19.62
2023-05-09T14:08:58.459Z,19.42
2023-05-09T14:11:00.005Z,19.38
2023-05-09T14:13:01.598Z,19.28
2023-05-09T14:15:04.577Z,19.45
2023-05-09T14:17:06.120Z,19.44
2023-05-09T14:19:07.673Z,19.43
2023-05-09T14:21:09.290Z,19.39
2023-05-09T14:23:10.945Z,19.52
2023-05-09T14:25:12.519Z,19.61
2023-05-09T14:27:14.407Z,19.74
2023-05-09T14:29:16.728Z,19.76
2023-05-09T14:31:18.346Z,19.79
2023-05-09T14:33:19.954Z,19.71
2023-05-09T14:35:21.626Z,19.56
2023-05-09T14:37:23.220Z,19.55
2023-05-09T14:39:24.973Z,19.53
2023-05-09T14:41:26.869Z,19.44
2023-05-09T14:43:28.526Z,19.46
2023-05-09T14:45:32.909Z,19.30
2023-05-09T14:47:34.541Z,19.31
2023-05-09T14:49:37.749Z,19.17
2023-05-09T14:51:39.318Z,19.12
2023-05-09T14:53:41.835Z,19.05
2023-05-09T14:55:43.680Z,19.00
2023-05-09T14:57:45.905Z,19.11
2023-05-09T14:59:47.478Z,19.10
2023-05-09T15:01:50.908Z,19.10
2023-05-09T15:03:52.566Z,19.10
2023-05-09T15:05:54.304Z,19.14
2023-05-09T15:07:55.855Z,19.00
2023-05-09T15:09:57.460Z,19.07
2023-05-09T15:11:58.957Z,19.07
2023-05-09T15:14:00.582Z,18.98
2023-05-09T15:16:02.197Z,18.87
2023-05-09T15:18:03.969Z,18.85
2023-05-09T15:20:06.557Z,18.84
2023-05-09T15:22:08.677Z,18.74
2023-05-09T15:24:10.199Z,18.78
2023-05-09T15:26:14.940Z,18.81
2023-05-09T15:28:16.457Z,18.84
2023-05-09T15:30:18.314Z,18.96
2023-05-09T15:32:20.605Z,18.97
2023-05-09T15:34:22.877Z,18.97
2023-05-09T15:36:24.369Z,18.98
2023-05-09T15:38:29.616Z,18.85
2023-05-09T15:40:31.216Z,18.83
2023-05-09T15:42:32.712Z,18.73
2023-05-09T15:44:34.385Z,18.75
2023-05-09T15:46:36.066Z,18.70
2023-05-09T15:48:37.688Z,18.66
2023-05-09T15:50:39.352Z,18.65
2023-05-09T15:52:40.880Z,18.67
2023-05-09T15:54:45.152Z,18.66
2023-05-09T15:56:48.115Z,18.64
2023-05-09T15:58:49.700Z,18.63
2023-05-09T16:00:51.288Z,18.51
2023-05-09T16:02:53.062Z,18.44
2023-05-09T16:04:54.683Z,18.35
2023-05-09T16:06:56.277Z,18.17
2023-05-09T16:08:57.931Z,18.24
2023-05-09T16:11:01.827Z,18.07
2023-05-09T16:13:03.986Z,18.06
2023-05-09T16:15:06.273Z,18.09
2023-05-09T16:17:07.823Z,18.11
2023-05-09T16:19:09.885Z,17.87
2023-05-09T16:21:12.439Z,17.74
2023-05-09T16:23:13.961Z,17.53
2023-05-09T16:25:16.566Z,17.23
2023-05-09T16:27:18.280Z,17.18
2023-05-09T16:29:19.796Z,17.40
2023-05-09T16:31:21.674Z,17.17
2023-05-09T16:33:23.397Z,17.27
2023-05-09T16:35:24.954Z,17.26
2023-05-09T16:37:29.103Z,16.84
2023-05-09T16:39:30.726Z,16.82
2023-05-09T16:41:32.351Z,16.68
2023-05-09T16:43:33.884Z,16.87
2023-05-09T16:45:35.430Z,16.55
2023-05-09T16:47:37.119Z,16.65
2023-05-09T16:49:38.657Z,16.59
2023-05-09T16:51:40.147Z,16.66
2023-05-09T16:53:41.685Z,16.59
2023-05-09T16:55:43.211Z,16.48
2023-05-09T16:57:44.780Z,16.37
2023-05-09T16:59:47.190Z,16.37
2023-05-09T17:01:48.805Z,16.45
2023-05-09T17:03:50.491Z,16.37
2023-05-09T17:05:52.062Z,16.40
2023-05-09T17:07:53.916Z,16.40
2023-05-09T17:09:55.642Z,16.34
2023-05-09T17:11:57.457Z,16.15
2023-05-09T17:13:59.004Z,16.23
2023-05-09T17:16:00.928Z,16.21
2023-05-09T17:18:03.096Z,16.16
2023-05-09T17:20:05.053Z,16.17
2023-05-09T17:22:07.972Z,16.17
2023-05-09T17:24:09.954Z,16.18
2023-05-09T17:26:11.903Z,16.18
2023-05-09T17:28:13.441Z,16.14
2023-05-09T17:30:15.554Z,16.07
2023-05-09T17:32:17.283Z,16.07
2023-05-09T17:34:18.792Z,16.06
2023-05-09T17:36:21.543Z,16.00
2023-05-09T17:38:23.114Z,16.03
2023-05-09T17:40:24.845Z,15.98
2023-05-09T17:42:26.399Z,15.96
2023-05-09T17:44:27.973Z,15.94
2023-05-09T17:48:54.732Z,15.97
2023-05-09T17:50:56.309Z,15.96
2023-05-09T17:52:58.678Z,15.91
2023-05-09T17:55:01.763Z,15.89
2023-05-09T17:57:03.318Z,15.91
2023-05-09T17:59:04.912Z,15.86
2023-05-09T18:01:06.968Z,15.85
2023-05-09T18:03:08.754Z,15.85
2023-05-09T18:05:11.223Z,15.82
2023-05-09T18:07:12.788Z,15.82
2023-05-09T18:09:14.347Z,15.83
2023-05-09T18:11:15.837Z,15.81
2023-05-09T18:13:17.564Z,15.80
2023-05-09T18:15:19.189Z,15.79
2023-05-09T18:17:21.021Z,15.77
2023-05-09T18:19:22.540Z,15.74
2023-05-09T18:21:24.139Z,15.75
2023-05-09T18:23:26.051Z,15.75
2023-05-09T18:25:27.765Z,15.70
2023-05-09T18:27:29.372Z,15.71
2023-05-09T18:29:31.511Z,15.70
2023-05-09T18:31:38.645Z,15.70
2023-05-09T18:33:41.610Z,15.68
2023-05-09T18:35:43.118Z,15.65
2023-05-09T18:37:44.624Z,15.64
2023-05-09T18:39:46.224Z,15.64
2023-05-09T18:41:47.825Z,15.62
2023-05-09T18:43:49.504Z,15.61
2023-05-09T18:45:51.974Z,15.60
2023-05-09T18:47:53.567Z,15.57
2023-05-09T18:49:55.132Z,15.56
2023-05-09T18:51:56.687Z,15.58
2023-05-09T18:53:58.241Z,15.53
2023-05-09T18:55:59.824Z,15.53
2023-05-09T18:58:01.456Z,15.53
2023-05-09T19:00:03.534Z,15.53
2023-05-09T19:02:05.089Z,15.48
2023-05-09T19:04:07.133Z,15.50
2023-05-09T19:06:10.591Z,15.52
2023-05-09T19:08:12.104Z,15.48
2023-05-09T19:10:14.500Z,15.44
2023-05-09T19:12:17.623Z,15.47
2023-05-09T19:14:19.532Z,15.43
2023-05-09T19:16:22.510Z,15.41
2023-05-09T19:18:24.125Z,15.39
2023-05-09T19:20:25.890Z,15.36
2023-05-09T19:22:27.428Z,15.35
2023-05-09T19:24:29.026Z,15.32
2023-05-09T19:26:30.677Z,15.30
2023-05-09T19:28:32.265Z,15.29
2023-05-09T19:30:34.114Z,15.25
2023-05-09T19:32:36.125Z,15.24
2023-05-09T19:34:37.670Z,15.27
2023-05-09T19:36:39.229Z,15.26
2023-05-09T19:38:40.740Z,15.24
2023-05-09T19:40:42.323Z,15.22
2023-05-09T19:42:43.825Z,15.21
2023-05-09T19:44:46.447Z,15.18
2023-05-09T19:46:48.519Z,15.15
2023-05-09T19:48:50.094Z,15.12
2023-05-09T19:50:57.853Z,15.13
2023-05-09T19:52:59.338Z,15.11
2023-05-09T19:55:01.266Z,15.10
2023-05-09T19:57:06.298Z,15.05
2023-05-09T19:59:08.147Z,15.04
2023-05-09T20:01:10.030Z,15.03
2023-05-09T20:03:11.854Z,15.02
2023-05-09T20:05:13.501Z,15.03
2023-05-09T20:07:18.351Z,15.02
2023-05-09T20:09:21.044Z,15.00
2023-05-09T20:11:22.786Z,15.00
2023-05-09T20:13:24.450Z,15.01
2023-05-09T20:15:26.038Z,14.98
2023-05-09T20:17:27.686Z,14.94
2023-05-09T20:19:30.366Z,14.94
2023-05-09T20:21:32.105Z,14.91
2023-05-09T20:23:33.738Z,14.76
2023-05-09T20:25:35.305Z,14.78
2023-05-09T20:27:37.408Z,14.82
2023-05-09T20:29:38.984Z,14.80
2023-05-09T20:31:41.601Z,14.73
2023-05-09T20:33:43.265Z,14.66
2023-05-09T20:35:45.082Z,14.68
2023-05-09T20:37:46.811Z,14.72
2023-05-09T20:39:48.387Z,14.78
2023-05-09T20:41:50.694Z,14.68
2023-05-09T20:43:52.319Z,14.67
2023-05-09T20:45:54.075Z,14.67
2023-05-09T20:47:55.914Z,14.67
2023-05-09T20:49:58.500Z,14.64
2023-05-09T20:52:00.221Z,14.62
2023-05-09T20:54:01.838Z,14.61
2023-05-09T20:56:03.532Z,14.54
2023-05-09T20:58:05.176Z,14.55
2023-05-09T21:00:07.993Z,14.49
2023-05-09T21:02:09.631Z,14.50
2023-05-09T21:04:11.215Z,14.51
2023-05-09T21:06:12.824Z,14.46
2023-05-09T21:08:14.404Z,14.43
2023-05-09T21:10:16.331Z,14.44
2023-05-09T21:12:18.047Z,14.44
2023-05-09T21:14:19.596Z,14.32
2023-05-09T21:16:21.185Z,14.36
2023-05-09T21:18:24.902Z,14.29
2023-05-09T21:20:26.393Z,14.26
2023-05-09T21:22:28.964Z,14.29
2023-05-09T21:24:30.536Z,14.15
2023-05-09T21:26:32.510Z,14.09
2023-05-09T21:28:34.127Z,14.10
2023-05-09T21:30:36.035Z,14.11
2023-05-09T21:32:37.602Z,14.04
2023-05-09T21:34:39.151Z,14.10
2023-05-09T21:36:41.195Z,14.14
2023-05-09T21:38:42.714Z,14.15
2023-05-09T21:40:44.285Z,14.17
2023-05-09T21:42:47.833Z,14.13
2023-05-09T21:44:49.416Z,14.15
2023-05-09T21:46:51.011Z,14.17
2023-05-09T21:48:53.205Z,14.08
2023-05-09T21:50:54.750Z,14.07
2023-05-09T21:52:56.886Z,14.03
2023-05-09T21:54:59.058Z,14.05
2023-05-09T21:57:00.707Z,14.07
2023-05-09T21:59:02.216Z,14.04
2023-05-09T22:01:03.860Z,14.03
2023-05-09T22:03:05.568Z,14.03
2023-05-09T22:05:07.497Z,14.01
2023-05-09T22:07:09.034Z,13.99
2023-05-09T22:09:10.606Z,13.99
2023-05-09T22:11:14.179Z,13.91
2023-05-09T22:13:16.435Z,13.93
2023-05-09T22:15:18.036Z,13.91
2023-05-09T22:17:19.616Z,13.93
2023-05-09T22:19:24.180Z,13.86
2023-05-09T22:21:25.854Z,13.81
2023-05-09T22:23:27.400Z,13.73
2023-05-09T22:25:28.965Z,13.74
2023-05-09T22:27:30.692Z,13.81
2023-05-09T22:29:34.442Z,13.72
2023-05-09T22:31:36.061Z,13.75
2023-05-09T22:33:37.595Z,13.70
2023-05-09T22:35:39.216Z,13.65
2023-05-09T22:37:40.734Z,13.64
2023-05-09T22:39:42.273Z,13.60
2023-05-09T22:41:43.782Z,13.60
2023-05-09T22:43:45.297Z,13.51
2023-05-09T22:45:47.015Z,13.51
2023-05-09T22:47:48.870Z,13.48
2023-05-09T22:49:50.649Z,13.50
2023-05-09T22:51:52.305Z,13.51
2023-05-09T22:53:53.955Z,13.45
2023-05-09T22:55:55.716Z,13.45
2023-05-09T22:57:57.277Z,13.45
2023-05-09T22:59:58.850Z,13.42
2023-05-09T23:02:00.396Z,13.35
2023-05-09T23:04:02.003Z,13.41
2023-05-09T23:06:03.708Z,13.42
2023-05-09T23:08:05.401Z,13.36
2023-05-09T23:10:07.587Z,13.36
2023-05-09T23:12:10.606Z,13.28
2023-05-09T23:14:12.312Z,13.29
2023-05-09T23:16:13.855Z,13.29
2023-05-09T23:18:15.499Z,13.25
2023-05-09T23:20:17.356Z,13.25
2023-05-09T23:22:19.212Z,13.25
2023-05-09T23:24:20.820Z,13.24
2023-05-09T23:26:22.367Z,13.26
2023-05-09T23:28:25.303Z,13.24
2023-05-09T23:30:26.877Z,13.23
2023-05-09T23:32:28.431Z,13.25
2023-05-09T23:34:30.798Z,13.26
2023-05-09T23:36:32.859Z,13.22
2023-05-09T23:38:34.453Z,13.25
2023-05-09T23:40:36.049Z,13.25
2023-05-09T23:42:37.589Z,13.26
2023-05-09T23:44:39.283Z,13.24
2023-05-09T23:46:40.848Z,13.22
2023-05-09T23:48:42.626Z,13.24
2023-05-09T23:50:44.172Z,13.23
2023-05-09T23:52:49.166Z,13.22
2023-05-09T23:54:50.711Z,13.26
2023-05-09T23:56:52.283Z,13.23
2023-05-09T23:58:54.073Z,13.20
